Time;durP1;ratioP1;P1;durP2;ratioP2;P2;SDS_P1;SDS_P2;PMS_P1;PMS_P2;Temp;Humidity;BMP_temperature;BMP_pressure;BME280_temperature;BME280_humidity;BME280_pressure;Samples;Min_cycle;Max_cycle;Signal;HPM_P1;HPM_P2
2023/05/29 00:01:07;;;;;;;20.75;7.85;;;;;;;10.40;100.00;102136.53;5096013;28;20027;-45
2023/05/29 00:03:33;;;;;;;;;;;;;;;10.47;100.00;102148.03;5096177;28;20027;-44
2023/05/29 00:06:00;;;;;;;18.08;6.78;;;;;;;10.35;100.00;102140.53;5095168;28;19912;-49
2023/05/29 00:08:26;;;;;;;17.77;6.28;;;;;;;10.34;100.00;102142.22;5095331;28;20471;-45
2023/05/29 00:10:51;;;;;;;21.10;6.22;;;;;;;10.28;100.00;102148.78;5094908;28;20056;-45
2023/05/29 00:13:16;;;;;;;20.58;6.75;;;;;;;10.26;100.00;102151.25;5095331;28;20463;-46
2023/05/29 00:15:42;;;;;;;20.65;6.82;;;;;;;10.20;100.00;102159.56;5095647;28;20073;-45
2023/05/29 00:18:07;;;;;;;18.35;7.05;;;;;;;10.14;100.00;102159.22;5094735;28;20128;-44
2023/05/29 00:20:34;;;;;;;18.70;6.47;;;;;;;10.10;100.00;102156.44;5095349;28;20031;-44
2023/05/29 00:23:02;;;;;;;19.45;6.90;;;;;;;10.07;100.00;102149.41;5094412;28;20046;-44
2023/05/29 00:25:27;;;;;;;20.70;6.93;;;;;;;10.01;100.00;102156.81;5094389;28;20031;-48
2023/05/29 00:27:52;;;;;;;19.33;6.70;;;;;;;9.97;100.00;102160.03;5095245;28;20032;-44
2023/05/29 00:30:18;;;;;;;21.85;6.28;;;;;;;9.92;100.00;102161.47;5095204;28;20032;-49
2023/05/29 00:32:43;;;;;;;16.35;5.43;;;;;;;9.83;100.00;102157.59;5094638;28;20081;-45
2023/05/29 00:35:08;;;;;;;22.85;5.65;;;;;;;9.78;100.00;102165.88;5095391;28;20024;-46
2023/05/29 00:37:34;;;;;;;22.08;5.88;;;;;;;9.75;100.00;102169.19;5094881;28;20357;-44
2023/05/29 00:40:00;;;;;;;19.40;5.65;;;;;;;9.67;100.00;102161.03;5094167;28;20012;-45
2023/05/29 00:42:25;;;;;;;20.50;5.93;;;;;;;9.63;100.00;102165.94;5094618;28;20024;-44
2023/05/29 00:44:51;;;;;;;15.15;5.30;;;;;;;9.62;100.00;102172.78;5095233;28;20024;-44
2023/05/29 00:47:16;;;;;;;21.08;5.72;;;;;;;9.58;100.00;102169.94;5094114;28;20022;-49
2023/05/29 00:49:42;;;;;;;21.08;5.30;;;;;;;9.50;100.00;102178.13;5095108;28;20089;-48
2023/05/29 00:52:09;;;;;;;17.95;5.55;;;;;;;9.48;100.00;102176.28;5094962;28;20111;-44
2023/05/29 00:54:35;;;;;;;17.67;5.28;;;;;;;9.43;100.00;102181.16;5093817;28;20032;-45
2023/05/29 00:57:02;;;;;;;18.60;5.07;;;;;;;9.40;100.00;102181.00;5094801;28;20035;-48
2023/05/29 00:59:31;;;;;;;19.38;5.45;;;;;;;9.37;100.00;102180.81;5094628;28;20031;-45
2023/05/29 01:01:58;;;;;;;18.42;5.22;;;;;;;9.32;100.00;102182.25;5094029;28;20080;-44
2023/05/29 01:04:27;;;;;;;19.75;5.65;;;;;;;9.31;100.00;102186.50;5094518;28;20031;-44
2023/05/29 01:06:53;;;;;;;19.40;5.75;;;;;;;9.27;100.00;102188.81;5094401;28;20032;-46
2023/05/29 01:09:18;;;;;;;18.75;5.30;;;;;;;9.23;100.00;102188.66;5093782;28;20392;-49
2023/05/29 01:12:18;;;;;;;18.67;5.78;;;;;;;9.21;100.00;102185.09;5094390;28;20387;-47
2023/05/29 01:15:04;;;;;;;20.70;5.75;;;;;;;9.14;100.00;102193.28;5093792;28;20065;-45
2023/05/29 01:17:59;;;;;;;22.38;5.53;;;;;;;9.13;100.00;102200.88;5094214;28;20024;-45
2023/05/29 01:20:35;;;;;;;18.55;5.80;;;;;;;9.06;100.00;102204.78;5094271;28;20039;-44
2023/05/29 01:23:09;;;;;;;16.50;5.28;;;;;;;8.99;100.00;102198.41;5093628;28;20059;-44
2023/05/29 01:25:43;;;;;;;21.00;5.30;;;;;;;8.98;100.00;102200.91;5093942;28;20494;-45
2023/05/29 01:28:12;;;;;;;15.75;5.10;;;;;;;8.94;100.00;102209.25;5093406;28;20128;-45
2023/05/29 01:30:40;;;;;;;23.27;5.30;;;;;;;8.90;100.00;102203.91;5094013;28;20055;-46
2023/05/29 01:33:05;;;;;;;20.60;5.35;;;;;;;8.86;100.00;102195.94;5094232;28;20054;-48
2023/05/29 01:35:30;;;;;;;22.80;5.63;;;;;;;8.85;100.00;102194.16;5093017;28;20467;-47
2023/05/29 01:37:56;;;;;;;17.88;5.43;;;;;;;8.80;100.00;102196.44;5093763;28;20034;-44
2023/05/29 01:40:21;;;;;;;18.63;5.55;;;;;;;8.80;100.00;102193.88;5093732;28;20028;-45
2023/05/29 01:42:47;;;;;;;17.23;5.07;;;;;;;8.75;100.00;102200.44;5093092;28;20024;-45
2023/05/29 01:45:13;;;;;;;23.23;5.60;;;;;;;8.72;100.00;102202.84;5093729;28;20031;-47
2023/05/29 01:47:38;;;;;;;17.50;4.75;;;;;;;8.68;100.00;102208.59;5093695;28;20048;-46
2023/05/29 01:50:05;;;;;;;18.30;5.55;;;;;;;8.64;100.00;102199.81;5093122;28;20055;-44
2023/05/29 01:52:31;;;;;;;21.52;6.03;;;;;;;8.63;100.00;102199.72;5093413;28;20020;-44
2023/05/29 01:54:57;;;;;;;21.48;5.40;;;;;;;8.59;100.00;102192.66;5093885;28;20031;-45
2023/05/29 01:57:23;;;;;;;20.27;4.93;;;;;;;8.57;100.00;102196.00;5092724;28;20024;-44
2023/05/29 01:59:49;;;;;;;26.77;6.10;;;;;;;8.52;100.00;102194.84;5093555;28;20028;-45
2023/05/29 02:02:15;;;;;;;24.38;5.82;;;;;;;8.52;100.00;102194.84;5093480;28;20486;-45
2023/05/29 02:04:40;;;;;;;21.70;5.28;;;;;;;8.48;100.00;102190.31;5092738;28;20115;-45
2023/05/29 02:07:06;;;;;;;25.45;5.45;;;;;;;8.45;100.00;102191.78;5093326;28;20036;-44
2023/05/29 02:09:32;;;;;;;21.10;5.30;;;;;;;8.42;100.00;102202.75;5093102;28;20024;-45
2023/05/29 02:11:58;;;;;;;18.42;5.18;;;;;;;8.45;100.00;102195.22;5092449;28;20036;-46
2023/05/29 02:14:24;;;;;;;19.48;5.28;;;;;;;8.40;100.00;102194.06;5092972;28;20028;-46
2023/05/29 02:16:51;;;;;;;19.95;5.30;;;;;;;8.34;100.00;102191.13;5093471;28;20073;-44
2023/05/29 02:19:18;;;;;;;18.90;5.30;;;;;;;8.29;100.00;102190.84;5092128;28;20391;-47
2023/05/29 02:21:43;;;;;;;19.15;4.75;;;;;;;8.23;100.00;102193.91;5093452;28;20038;-45
2023/05/29 02:24:08;;;;;;;16.73;4.95;;;;;;;8.19;100.00;102194.53;5093081;28;20020;-45
2023/05/29 02:26:36;;;;;;;16.48;4.50;;;;;;;8.14;100.00;102198.50;5092109;28;20020;-45
2023/05/29 02:29:01;;;;;;;;;;;;;;;8.24;100.00;102197.41;5093775;28;20428;-44
2023/05/29 02:31:27;;;;;;;18.75;5.07;;;;;;;8.10;100.00;102203.38;5092263;28;20382;-45
2023/05/29 02:33:52;;;;;;;24.25;5.50;;;;;;;8.08;100.00;102201.59;5093046;28;20035;-44
2023/05/29 02:36:17;;;;;;;22.10;5.00;;;;;;;8.05;100.00;102208.22;5092703;28;20506;-48
2023/05/29 02:38:43;;;;;;;17.35;5.25;;;;;;;7.99;100.00;102210.41;5092256;28;20024;-44
2023/05/29 02:41:08;;;;;;;17.73;4.80;;;;;;;7.98;100.00;102211.19;5092851;28;20028;-45
2023/05/29 02:43:33;;;;;;;21.67;5.10;;;;;;;7.95;100.00;102218.69;5092760;28;20027;-46
2023/05/29 02:45:59;;;;;;;25.45;5.68;;;;;;;7.87;100.00;102221.66;5091713;28;20065;-48
2023/05/29 02:48:25;;;;;;;23.83;5.25;;;;;;;7.89;100.00;102220.09;5092744;28;20022;-45
2023/05/29 02:50:51;;;;;;;22.27;5.45;;;;;;;7.86;100.00;102214.78;5092852;28;20028;-44
2023/05/29 02:53:16;;;;;;;22.20;5.30;;;;;;;7.85;100.00;102227.50;5091991;28;20028;-45
2023/05/29 02:55:42;;;;;;;25.17;5.57;;;;;;;7.82;100.00;102223.06;5092933;28;20028;-45
2023/05/29 02:58:08;;;;;;;17.58;5.35;;;;;;;7.79;100.00;102222.88;5092835;28;20055;-45
2023/05/29 03:00:33;;;;;;;22.17;5.22;;;;;;;7.78;100.00;102226.22;5092078;28;20064;-45
2023/05/29 03:02:58;;;;;;;21.50;5.45;;;;;;;7.78;100.00;102215.97;5092815;28;20066;-45
2023/05/29 03:05:24;;;;;;;21.92;5.72;;;;;;;7.78;100.00;102215.97;5092571;28;20020;-48
2023/05/29 03:07:49;;;;;;;25.33;6.38;;;;;;;7.77;100.00;102215.88;5092039;28;20054;-44
2023/05/29 03:10:17;;;;;;;22.30;4.70;;;;;;;7.74;100.00;102225.13;5092651;28;20024;-44
2023/05/29 03:12:43;;;;;;;21.13;5.20;;;;;;;7.73;100.00;102214.78;5092951;28;20391;-45
2023/05/29 03:15:09;;;;;;;21.85;4.93;;;;;;;7.73;100.00;102217.34;5092100;28;20025;-44
2023/05/29 03:17:36;;;;;;;23.15;5.85;;;;;;;7.70;100.00;102217.16;5092425;28;20036;-49
2023/05/29 03:20:05;;;;;;;21.65;5.32;;;;;;;7.68;100.00;102223.88;5092824;28;20040;-44
2023/05/29 03:22:30;;;;;;;25.75;5.93;;;;;;;7.67;100.00;102222.09;5091767;28;20035;-44
2023/05/29 03:24:56;;;;;;;26.73;5.85;;;;;;;7.65;100.00;102221.13;5092536;28;20028;-45
2023/05/29 03:27:21;;;;;;;22.63;6.45;;;;;;;7.65;100.00;102218.56;5092475;28;20024;-46
2023/05/29 03:29:46;;;;;;;26.95;5.63;;;;;;;7.67;100.00;102216.97;5091972;28;20147;-50
2023/05/29 03:32:11;;;;;;;26.33;6.45;;;;;;;7.65;100.00;102223.69;5092595;28;20376;-50
2023/05/29 03:34:37;;;;;;;26.20;5.15;;;;;;;7.61;100.00;102231.97;5091829;28;20042;-49
2023/05/29 03:37:03;;;;;;;25.80;5.70;;;;;;;7.57;100.00;102234.34;5092557;28;20027;-50
2023/05/29 03:39:28;;;;;;;21.63;5.88;;;;;;;7.59;100.00;102234.44;5092059;28;20111;-47
2023/05/29 03:41:53;;;;;;;22.60;5.38;;;;;;;7.57;100.00;102231.78;5091738;28;20024;-48
2023/05/29 03:44:19;;;;;;;19.45;5.93;;;;;;;7.57;100.00;102236.91;5092220;28;20016;-49
2023/05/29 03:46:44;;;;;;;25.67;6.20;;;;;;;7.56;100.00;102232.56;5092316;28;20067;-49
2023/05/29 03:49:09;;;;;;;21.90;5.65;;;;;;;7.55;100.00;102233.38;5091700;28;20028;-49
2023/05/29 03:51:35;;;;;;;26.33;6.05;;;;;;;7.51;100.00;102233.94;5092070;28;20488;-46
2023/05/29 03:54:01;;;;;;;21.75;5.68;;;;;;;7.53;100.00;102224.66;5092155;28;20460;-48
2023/05/29 03:56:26;;;;;;;26.17;6.28;;;;;;;7.54;100.00;102236.72;5091563;28;20031;-49
2023/05/29 03:58:52;;;;;;;25.10;6.35;;;;;;;7.55;100.00;102237.59;5094313;28;20379;-48
2023/05/29 04:01:17;;;;;;;28.65;6.28;;;;;;;7.56;100.00;102240.25;5095624;28;20020;-50
2023/05/29 04:03:43;;;;;;;30.42;6.93;;;;;;;7.58;100.00;102250.63;5094892;28;20170;-47
2023/05/29 04:06:09;;;;;;;23.70;6.07;;;;;;;7.58;100.00;102255.78;5095701;28;20016;-48
2023/05/29 04:08:34;;;;;;;22.70;6.00;;;;;;;7.58;100.00;102246.38;5095411;28;20031;-48
2023/05/29 04:10:59;;;;;;;24.48;5.90;;;;;;;7.58;100.00;102248.06;5094915;28;20093;-50
2023/05/29 04:13:25;;;;;;;26.13;6.15;;;;;;;7.61;100.00;102263.66;5095426;28;20119;-50
2023/05/29 04:15:53;;;;;;;26.50;6.47;;;;;;;7.61;100.00;102260.22;5095643;28;20027;-47
2023/05/29 04:18:19;;;;;;;20.33;5.75;;;;;;;7.60;100.00;102256.75;5094251;28;20381;-49
2023/05/29 04:20:46;;;;;;;27.25;6.10;;;;;;;7.64;100.00;102265.53;5095487;28;20024;-49
2023/05/29 04:23:12;;;;;;;22.30;5.15;;;;;;;7.66;100.00;102256.25;5095407;28;20085;-50
2023/05/29 04:25:37;;;;;;;24.35;5.70;;;;;;;7.68;100.00;102255.56;5094280;28;20028;-48
2023/05/29 04:28:03;;;;;;;22.02;5.55;;;;;;;7.70;100.00;102258.22;5095445;28;20472;-50
2023/05/29 04:30:29;;;;;;;24.60;5.28;;;;;;;7.73;100.00;102258.41;5095099;28;20078;-48
2023/05/29 04:32:54;;;;;;;20.25;5.18;;;;;;;7.75;100.00;102259.41;5094579;28;20027;-48
2023/05/29 04:35:21;;;;;;;22.48;5.80;;;;;;;7.77;100.00;102259.50;5094990;28;20016;-49
2023/05/29 04:37:47;;;;;;;25.02;5.60;;;;;;;7.81;100.00;102264.03;5094867;28;20379;-50
2023/05/29 04:40:13;;;;;;;18.48;5.63;;;;;;;7.83;100.00;102265.91;5094608;28;20028;-49
2023/05/29 04:42:42;;;;;;;22.77;5.72;;;;;;;7.84;100.00;102275.38;5094878;28;20082;-47
2023/05/29 04:45:10;;;;;;;24.95;5.47;;;;;;;7.89;100.00;102271.44;5094169;28;20027;-49
2023/05/29 04:47:42;;;;;;;22.00;6.32;;;;;;;7.95;100.00;102272.63;5094725;28;20032;-50
2023/05/29 04:50:10;;;;;;;25.38;5.55;;;;;;;7.99;100.00;102274.59;5094954;28;20024;-49
2023/05/29 04:52:37;;;;;;;24.40;5.45;;;;;;;8.04;100.00;102271.53;5093874;28;20054;-48
2023/05/29 04:55:02;;;;;;;23.13;5.13;;;;;;;8.09;100.00;102274.38;5094900;28;20114;-50
2023/05/29 04:57:28;;;;;;;20.75;5.53;;;;;;;8.15;100.00;102272.19;5094660;28;20040;-50
2023/05/29 04:59:53;;;;;;;23.25;5.50;;;;;;;8.21;100.00;102274.25;5094152;28;20047;-47
2023/05/29 05:02:18;;;;;;;21.98;5.47;;;;;;;8.27;100.00;102274.63;5094451;28;20490;-49
2023/05/29 05:04:45;;;;;;;19.70;5.90;;;;;;;8.31;100.00;102271.44;5094624;28;20030;-49
2023/05/29 05:07:10;;;;;;;25.63;5.43;;;;;;;8.36;100.00;102275.19;5093763;28;20020;-49
2023/05/29 05:09:36;;;;;;;20.35;5.05;;;;;;;8.45;100.00;102274.00;5094010;28;20038;-49
2023/05/29 05:12:01;;;;;;;25.00;5.40;;;;;;;8.53;100.00;102278.84;5094590;28;20032;-45
2023/05/29 05:14:27;;;;;;;24.48;5.53;;;;;;;8.57;100.00;102275.66;5093473;28;20031;-50
2023/05/29 05:16:52;;;;;;;23.88;5.32;;;;;;;8.62;100.00;102285.34;5094310;28;20035;-49
2023/05/29 05:19:18;;;;;;;22.55;5.78;;;;;;;8.68;100.00;102283.13;5093926;28;20044;-47
2023/05/29 05:21:43;;;;;;;18.35;4.85;;;;;;;8.76;100.00;102294.75;5093587;28;20020;-48
2023/05/29 05:24:09;;;;;;;22.65;5.47;;;;;;;8.85;100.00;102292.72;5094223;28;20030;-50
2023/05/29 05:26:34;;;;;;;22.70;5.38;;;;;;;8.92;100.00;102293.09;5094080;28;20055;-50
2023/05/29 05:28:59;;;;;;;23.65;5.38;;;;;;;8.99;100.00;102303.84;5093293;28;20024;-48
2023/05/29 05:31:25;;;;;;;19.10;4.70;;;;;;;9.06;100.00;102307.66;5093815;28;20115;-50
2023/05/29 05:33:50;;;;;;;24.35;5.32;;;;;;;9.14;100.00;102311.59;5094067;28;20414;-48
2023/05/29 05:36:15;;;;;;;22.85;5.85;;;;;;;9.22;100.00;102314.63;5092940;28;20040;-46
2023/05/29 05:38:41;;;;;;;23.02;5.15;;;;;;;9.29;100.00;102303.88;5094212;28;20525;-50
2023/05/29 05:41:06;;;;;;;25.50;5.70;;;;;;;9.38;100.00;102306.09;5093757;28;20028;-48
2023/05/29 05:43:32;;;;;;;23.23;5.75;;;;;;;9.42;100.00;102308.03;5092948;28;20401;-45
2023/05/29 05:45:57;;;;;;;22.30;5.25;;;;;;;9.49;100.00;102309.28;5093859;28;20107;-48
2023/05/29 05:48:22;;;;;;;19.85;4.93;;;;;;;9.48;100.00;102307.53;5092635;28;20107;-48
2023/05/29 05:50:48;;;;;;;20.25;4.85;;;;;;;9.53;100.00;102306.97;5093616;28;20516;-50
2023/05/29 05:53:13;;;;;;;21.73;5.43;;;;;;;9.61;100.00;102298.81;5093630;28;20024;-48
2023/05/29 05:55:38;;;;;;;22.05;5.47;;;;;;;9.73;100.00;102294.34;5092846;28;20536;-51
2023/05/29 05:58:04;;;;;;;20.10;5.47;;;;;;;9.79;100.00;102289.56;5093782;28;20085;-49
2023/05/29 06:00:29;;;;;;;24.30;5.50;;;;;;;9.89;100.00;102294.41;5093308;28;20031;-50
2023/05/29 06:02:54;;;;;;;19.40;4.78;;;;;;;9.85;98.36;102297.63;5092804;28;20091;-47
2023/05/29 06:05:20;;;;;;;24.33;5.40;;;;;;;9.92;98.68;102290.25;5093164;28;20024;-49
2023/05/29 06:07:45;;;;;;;21.15;5.32;;;;;;;9.98;99.06;102290.56;5093396;28;20024;-49
2023/05/29 06:10:10;;;;;;;24.67;5.72;;;;;;;10.03;97.73;102302.00;5092876;28;20390;-49
2023/05/29 06:12:36;;;;;;;19.00;5.28;;;;;;;10.14;97.57;102298.34;5093160;28;20052;-47
2023/05/29 06:15:02;;;;;;;20.35;4.82;;;;;;;10.15;95.90;102304.41;5093709;28;20043;-50
2023/05/29 06:17:27;;;;;;;22.80;5.32;;;;;;;10.31;98.25;102306.09;5092288;28;20528;-48
2023/05/29 06:19:54;;;;;;;20.17;5.00;;;;;;;10.33;95.94;102312.25;5093186;28;20064;-49
2023/05/29 06:22:20;;;;;;;25.00;5.00;;;;;;;10.45;95.42;102310.34;5092294;28;20392;-50
2023/05/29 06:24:45;;;;;;;21.02;4.93;;;;;;;10.51;94.66;102315.84;5092327;28;20371;-50
2023/05/29 06:27:10;;;;;;;22.77;4.90;;;;;;;10.54;93.55;102321.13;5093260;28;20035;-49
2023/05/29 06:29:36;;;;;;;25.15;4.32;;;;;;;10.64;93.86;102321.63;5092889;28;20510;-49
2023/05/29 06:32:01;;;;;;;23.63;4.57;;;;;;;10.62;91.35;102333.56;5092252;28;20111;-50
2023/05/29 06:34:26;;;;;;;22.27;4.75;;;;;;;10.67;91.73;102327.84;5092722;28;20464;-48
2023/05/29 06:36:52;;;;;;;17.45;3.92;;;;;;;10.66;90.51;102327.75;5093306;28;20114;-49
2023/05/29 06:39:18;;;;;;;21.73;4.22;;;;;;;10.69;90.17;102325.31;5092074;28;20020;-47
2023/05/29 06:41:43;;;;;;;17.65;4.53;;;;;;;10.82;91.05;102326.88;5093156;28;20043;-49
2023/05/29 06:44:08;;;;;;;18.17;4.50;;;;;;;10.84;89.04;102320.97;5093005;28;20024;-48
2023/05/29 06:46:34;;;;;;;15.20;3.75;;;;;;;10.83;87.32;102331.22;5091916;28;20027;-47
2023/05/29 06:48:59;;;;;;;18.90;4.03;;;;;;;10.91;86.99;102327.38;5092884;28;20477;-44
2023/05/29 06:51:24;;;;;;;17.58;4.38;;;;;;;11.05;88.90;102325.47;5092423;28;20042;-49
2023/05/29 06:53:50;;;;;;;18.73;4.13;;;;;;;11.19;88.15;102331.34;5092081;28;20130;-44
2023/05/29 06:56:15;;;;;;;19.95;4.43;;;;;;;11.19;87.09;102329.69;5092997;28;20019;-45
2023/05/29 06:58:40;;;;;;;23.15;4.22;;;;;;;11.23;85.75;102322.06;5092258;28;20517;-45
2023/05/29 07:01:06;;;;;;;19.50;4.47;;;;;;;11.42;88.05;102324.75;5092939;28;20115;-48
2023/05/29 07:03:31;;;;;;;15.30;4.32;;;;;;;11.42;86.33;102329.06;5092449;28;20020;-49
2023/05/29 07:05:57;;;;;;;16.02;4.38;;;;;;;11.51;85.62;102330.38;5091912;28;20028;-50
2023/05/29 07:08:23;;;;;;;17.27;3.88;;;;;;;11.51;84.29;102335.53;5092647;28;20024;-50
2023/05/29 07:10:48;;;;;;;15.20;3.90;;;;;;;11.60;84.92;102326.50;5092756;28;20032;-51
2023/05/29 07:13:16;;;;;;;17.38;4.18;;;;;;;11.64;83.63;102334.44;5092042;28;20121;-48
2023/05/29 07:15:42;;;;;;;17.80;4.57;;;;;;;11.75;84.58;102331.50;5092626;28;20458;-50
2023/05/29 07:18:07;;;;;;;17.17;4.53;;;;;;;11.88;84.57;102333.91;5092335;28;20095;-51
2023/05/29 07:20:32;;;;;;;16.08;4.45;;;;;;;12.04;84.62;102330.38;5091487;28;20063;-50
2023/05/29 07:22:58;;;;;;;56.85;6.97;;;;;;;12.10;82.59;102332.38;5092730;28;20103;-44
2023/05/29 07:25:23;;;;;;;19.70;4.28;;;;;;;12.23;82.83;102331.25;5092498;28;20471;-48
2023/05/29 07:27:48;;;;;;;19.20;4.15;;;;;;;12.24;80.48;102338.16;5091678;28;20463;-50
2023/05/29 07:30:14;;;;;;;17.77;4.30;;;;;;;12.32;81.16;102336.84;5092456;28;20070;-48
2023/05/29 07:32:39;;;;;;;17.70;4.53;;;;;;;12.35;79.24;102343.00;5093817;28;20089;-45
2023/05/29 07:35:05;;;;;;;16.02;3.30;;;;;;;12.42;78.54;102344.22;5095592;28;20024;-47
2023/05/29 07:37:31;;;;;;;19.67;4.68;;;;;;;12.51;79.00;102344.63;5096228;28;20379;-48
2023/05/29 07:39:57;;;;;;;16.40;3.65;;;;;;;12.48;76.20;102346.19;5096450;28;20027;-49
2023/05/29 07:42:22;;;;;;;16.80;3.90;;;;;;;12.47;75.50;102353.06;5095366;28;20138;-49
2023/05/29 07:44:47;;;;;;;13.35;3.50;;;;;;;12.63;77.34;102351.19;5096126;28;20081;-50
2023/05/29 07:47:13;;;;;;;16.17;3.97;;;;;;;12.67;76.21;102341.03;5096175;28;20533;-50
2023/05/29 07:49:38;;;;;;;17.02;4.10;;;;;;;12.72;77.07;102346.41;5094925;28;20051;-51
2023/05/29 07:52:04;;;;;;;12.00;3.53;;;;;;;12.80;76.11;102346.75;5096107;28;20024;-50
2023/05/29 07:54:32;;;;;;;13.65;3.67;;;;;;;12.98;75.54;102346.69;5095900;28;20024;-50
2023/05/29 07:56:58;;;;;;;16.08;3.67;;;;;;;13.06;74.23;102344.44;5095357;28;20070;-50
2023/05/29 07:59:24;;;;;;;17.67;3.63;;;;;;;13.17;74.56;102348.38;5095629;28;20032;-50
2023/05/29 08:01:49;;;;;;;18.30;4.07;;;;;;;13.26;74.68;102347.84;5095751;28;20031;-49
2023/05/29 08:04:15;;;;;;;14.48;3.92;;;;;;;13.46;73.35;102349.63;5094998;28;20031;-50
2023/05/29 08:06:42;;;;;;;13.30;3.90;;;;;;;13.31;70.54;102356.69;5095785;28;20379;-50
2023/05/29 08:09:08;;;;;;;15.45;4.00;;;;;;;13.39;72.21;102360.56;5095026;28;20085;-49
2023/05/29 08:11:33;;;;;;;16.20;3.92;;;;;;;13.46;72.58;102351.34;5095452;28;20406;-48
2023/05/29 08:13:59;;;;;;;17.80;3.88;;;;;;;13.46;72.10;102356.50;5095683;28;20024;-49
2023/05/29 08:16:24;;;;;;;17.63;4.03;;;;;;;13.57;71.18;102359.53;5094516;28;20024;-49
2023/05/29 08:18:50;;;;;;;15.90;3.67;;;;;;;13.73;71.80;102359.34;5095403;28;20093;-51
2023/05/29 08:21:15;;;;;;;15.50;3.83;;;;;;;13.87;72.43;102356.47;5095404;28;20039;-46
2023/05/29 08:23:41;;;;;;;15.05;3.80;;;;;;;13.96;70.10;102355.09;5094512;28;20464;-48
2023/05/29 08:26:07;;;;;;;13.73;3.42;;;;;;;14.18;71.81;102353.34;5095511;28;20056;-50
2023/05/29 08:28:32;;;;;;;14.73;3.88;;;;;;;14.33;70.18;102351.34;5095071;28;20118;-50
2023/05/29 08:30:57;;;;;;;18.08;3.60;;;;;;;14.24;67.46;102365.66;5094522;28;20384;-51
2023/05/29 08:33:23;;;;;;;14.35;3.90;;;;;;;14.26;67.45;102358.84;5094949;28;20028;-49
2023/05/29 08:35:48;;;;;;;18.45;3.70;;;;;;;14.15;68.11;102359.31;5095390;28;20042;-51
2023/05/29 08:38:13;;;;;;;13.38;3.20;;;;;;;14.05;66.35;102364.97;5094617;28;20024;-49
2023/05/29 08:40:39;;;;;;;15.30;3.70;;;;;;;14.05;66.86;102366.69;5095029;28;20028;-50
2023/05/29 08:43:15;;;;;;;17.02;3.67;;;;;;;14.32;68.46;102366.88;5095044;28;20487;-50
2023/05/29 08:45:45;;;;;;;14.82;3.53;;;;;;;14.63;67.96;102375.81;5093792;28;20533;-51
2023/05/29 08:48:11;;;;;;;12.43;3.90;;;;;;;14.82;67.46;102372.19;5095122;28;20035;-49
2023/05/29 08:50:45;;;;;;;16.23;3.38;;;;;;;14.82;66.30;102372.19;5094783;28;20111;-46
2023/05/29 08:53:12;;;;;;;13.48;3.22;;;;;;;14.84;64.39;102380.94;5094356;28;20024;-49
2023/05/29 08:55:37;;;;;;;14.02;3.45;;;;;;;14.89;64.25;102383.72;5094499;28;20028;-50
2023/05/29 08:58:04;;;;;;;17.08;3.45;;;;;;;14.98;62.62;102373.66;5094869;28;20035;-49
2023/05/29 09:00:29;;;;;;;11.63;2.92;;;;;;;15.24;63.97;102382.34;5093858;28;20035;-50
2023/05/29 09:02:59;;;;;;;9.93;2.83;;;;;;;15.37;63.02;102381.06;5094900;28;20028;-50
2023/05/29 09:05:26;;;;;;;13.07;3.33;;;;;;;15.41;60.76;102385.53;5093779;28;20028;-51
2023/05/29 09:07:52;;;;;;;10.75;3.17;;;;;;;15.45;59.06;102382.22;5094757;28;20024;-49
2023/05/29 09:10:18;;;;;;;16.75;3.33;;;;;;;15.53;60.16;102373.78;5094215;28;20032;-50
2023/05/29 09:12:43;;;;;;;10.98;2.88;;;;;;;15.73;60.87;102375.34;5093735;28;20069;-47
2023/05/29 09:15:19;;;;;;;18.45;3.40;;;;;;;15.95;59.33;102378.69;5094384;28;20101;-46
2023/05/29 09:17:57;;;;;;;15.23;3.85;;;;;;;15.90;57.01;102375.03;5094244;28;20410;-50
2023/05/29 09:20:24;;;;;;;11.10;3.08;;;;;;;15.95;57.57;102379.53;5093337;28;20529;-50
2023/05/29 09:23:00;;;;;;;13.00;4.05;;;;;;;16.12;59.13;102382.66;5094397;28;20028;-50
2023/05/29 09:25:31;;;;;;;12.27;3.20;;;;;;;16.39;57.39;102380.88;5093985;28;20020;-49
2023/05/29 09:28:08;;;;;;;10.30;2.88;;;;;;;16.62;57.06;102378.97;5093700;28;20028;-48
2023/05/29 09:30:42;;;;;;;10.18;2.83;;;;;;;16.90;55.60;102374.53;5093984;28;20092;-50
2023/05/29 09:33:09;;;;;;;15.45;3.45;;;;;;;17.18;55.03;102381.41;5094187;28;20032;-49
2023/05/29 09:35:39;;;;;;;14.60;3.20;;;;;;;17.01;51.91;102377.47;5093104;28;20016;-50
2023/05/29 09:38:06;;;;;;;12.48;3.78;;;;;;;17.05;52.80;102375.00;5094194;28;20032;-50
2023/05/29 09:40:32;;;;;;;11.98;3.35;;;;;;;16.93;52.99;102367.72;5092795;28;20463;-50
2023/05/29 09:43:07;;;;;;;15.55;3.42;;;;;;;16.81;53.58;102379.50;5094323;28;20031;-50
2023/05/29 09:45:32;;;;;;;14.93;3.45;;;;;;;16.90;53.28;102369.31;5093631;28;20024;-50
2023/05/29 09:47:58;;;;;;;11.30;2.90;;;;;;;17.11;53.33;102362.13;5093056;28;20383;-51
2023/05/29 09:50:28;;;;;;;11.73;3.13;;;;;;;17.15;53.06;102370.06;5093310;28;20032;-51
2023/05/29 09:52:54;;;;;;;12.45;3.22;;;;;;;17.21;51.86;102364.97;5093930;28;20028;-51
2023/05/29 09:55:28;;;;;;;11.93;3.33;;;;;;;17.30;51.75;102373.06;5092699;28;20031;-49
2023/05/29 09:57:54;;;;;;;9.10;2.92;;;;;;;17.51;50.41;102374.47;5093761;28;20028;-49
2023/05/29 10:00:21;;;;;;;11.85;3.53;;;;;;;17.70;50.87;102357.53;5093261;28;20475;-51
2023/05/29 10:02:48;;;;;;;10.80;3.22;;;;;;;18.04;49.87;102367.06;5092723;28;20149;-47
2023/05/29 10:05:15;;;;;;;12.23;2.50;;;;;;;18.22;49.57;102363.13;5093804;28;20039;-45
2023/05/29 10:07:44;;;;;;;11.43;3.22;;;;;;;18.75;48.33;102371.19;5093674;28;20024;-44
2023/05/29 10:10:11;;;;;;;10.30;3.45;;;;;;;18.95;48.35;102364.63;5092796;28;20030;-49
2023/05/29 10:12:38;;;;;;;13.50;4.05;;;;;;;18.90;46.39;102369.75;5093025;28;20112;-50
2023/05/29 10:15:12;;;;;;;12.60;3.60;;;;;;;19.28;47.25;102372.22;5093452;28;20032;-51
2023/05/29 10:17:39;;;;;;;11.55;3.15;;;;;;;19.37;44.84;102380.22;5092051;28;20630;-49
2023/05/29 10:20:09;;;;;;;11.15;3.05;;;;;;;19.87;44.42;102370.56;5093480;28;20027;-50
2023/05/29 10:22:39;;;;;;;22.02;3.97;;;;;;;20.40;43.27;102367.84;5092422;28;20038;-49
2023/05/29 10:25:06;;;;;;;11.10;2.95;;;;;;;20.82;42.08;102370.13;5093239;28;20022;-49
2023/05/29 10:27:32;;;;;;;10.50;3.03;;;;;;;20.84;40.35;102368.41;5092807;28;20376;-48
2023/05/29 10:30:09;;;;;;;12.20;3.35;;;;;;;21.43;40.92;102363.75;5091546;28;20027;-50
2023/05/29 10:33:09;;;;;;;11.10;2.90;;;;;;;21.98;41.12;102350.19;5092925;28;20031;-48
2023/05/29 10:36:04;;;;;;;8.38;2.60;;;;;;;22.33;42.59;102360.84;5037841;28;20054;-50
2023/05/29 10:38:30;;;;;;;13.05;3.22;;;;;;;22.17;36.81;102353.78;5092128;28;20032;-51
2023/05/29 10:40:56;;;;;;;10.20;2.80;;;;;;;22.67;37.42;102357.50;5092940;28;20055;-51
2023/05/29 10:43:33;;;;;;;9.82;2.95;;;;;;;22.80;38.27;102356.69;5092662;28;20444;-50
2023/05/29 10:45:58;;;;;;;9.03;2.93;;;;;;;23.02;35.31;102357.63;5092224;28;20115;-46
2023/05/29 10:48:28;;;;;;;12.20;2.80;;;;;;;22.64;37.00;102353.13;5092467;28;20444;-50
2023/05/29 10:50:55;;;;;;;11.05;3.22;;;;;;;22.73;37.73;102365.44;5091903;28;20042;-49
2023/05/29 10:53:25;;;;;;;8.32;2.65;;;;;;;22.72;36.22;102355.78;5092803;28;20111;-50
2023/05/29 10:55:52;;;;;;;7.93;2.50;;;;;;;22.88;36.88;102356.72;5093048;28;20031;-50
2023/05/29 10:58:25;;;;;;;9.82;2.95;;;;;;;23.01;35.49;102355.84;5091871;28;20024;-50
2023/05/29 11:00:54;;;;;;;13.38;3.42;;;;;;;23.07;35.45;102354.09;5092821;28;20091;-51
2023/05/29 11:03:30;;;;;;;14.27;3.28;;;;;;;22.92;35.05;102350.59;5092370;28;20013;-49
2023/05/29 11:06:07;;;;;;;12.43;3.25;;;;;;;23.13;37.39;102349.72;5092150;28;20024;-51
2023/05/29 11:08:46;;;;;;;9.00;2.40;;;;;;;23.02;36.32;102343.56;5095874;28;20036;-49
2023/05/29 11:11:12;;;;;;;10.90;2.97;;;;;;;22.62;36.12;102341.75;5096862;28;20081;-51
2023/05/29 11:13:40;;;;;;;12.48;2.83;;;;;;;22.69;36.61;102342.66;5095698;28;20028;-50
2023/05/29 11:16:25;;;;;;;9.98;2.95;;;;;;;22.52;36.45;102347.84;5096941;28;20103;-45